Time;durP1;ratioP1;P1;durP2;ratioP2;P2;SDS_P1;SDS_P2;PMS_P1;PMS_P2;Temp;Humidity;BMP_temperature;BMP_pressure;BME280_temperature;BME280_humidity;BME280_pressure;Samples;Min_cycle;Max_cycle;Signal;HPM_P1;HPM_P2
2022/04/09 00:01:10;;;;;;;6.93;4.78;;;;;;;3.10;70.63;99043.06;7400129;19;20046;-66
2022/04/09 00:03:38;;;;;;;5.38;4.40;;;;;;;3.09;70.61;99049.13;7399641;19;20494;-66
2022/04/09 00:06:06;;;;;;;6.70;4.90;;;;;;;3.09;70.79;99043.09;7399612;19;20511;-66
2022/04/09 00:08:34;;;;;;;8.93;4.80;;;;;;;3.09;70.62;99043.09;7397960;19;20043;-66
2022/04/09 00:11:05;;;;;;;8.38;4.32;;;;;;;3.08;70.73;99042.25;7397558;19;20038;-66
2022/04/09 00:13:33;;;;;;;7.50;4.65;;;;;;;3.08;70.69;99042.25;7400133;19;20122;-66
2022/04/09 00:16:01;;;;;;;9.15;5.32;;;;;;;3.09;71.03;99043.94;7397199;19;20018;-66
2022/04/09 00:18:30;;;;;;;8.05;4.72;;;;;;;3.09;70.89;99049.13;7396753;19;20384;-66
2022/04/09 00:20:58;;;;;;;7.47;4.50;;;;;;;3.12;70.71;99050.81;7397103;19;20022;-66
2022/04/09 00:23:26;;;;;;;5.25;4.72;;;;;;;3.12;71.01;99050.81;7399407;19;20023;-66
2022/04/09 00:25:54;;;;;;;5.50;5.00;;;;;;;3.12;71.19;99048.22;7396695;19;20404;-66
2022/04/09 00:28:25;;;;;;;5.45;4.55;;;;;;;3.13;71.24;99049.91;7397571;19;20031;-66
2022/04/09 00:30:53;;;;;;;9.32;4.90;;;;;;;3.12;71.38;99049.97;7399642;19;20018;-66
2022/04/09 00:33:21;;;;;;;8.40;4.63;;;;;;;3.16;71.18;99054.19;7397811;19;20407;-66
2022/04/09 00:35:50;;;;;;;5.90;4.70;;;;;;;3.16;71.24;99059.38;7396779;19;20039;-66
2022/04/09 00:38:18;;;;;;;6.18;4.88;;;;;;;3.16;71.42;99061.97;7397274;19;20018;-66
2022/04/09 00:40:46;;;;;;;5.68;4.50;;;;;;;3.15;71.43;99060.28;7398445;19;20379;-66
2022/04/09 00:43:14;;;;;;;8.00;5.75;;;;;;;3.14;71.40;99062.00;7398744;19;20027;-66
2022/04/09 00:45:45;;;;;;;5.63;4.78;;;;;;;3.14;71.31;99058.56;7397309;19;20019;-66
2022/04/09 00:48:13;;;;;;;6.80;4.95;;;;;;;3.13;71.71;99064.63;7396064;19;20364;-67
2022/04/09 00:50:42;;;;;;;7.70;5.25;;;;;;;3.10;71.46;99066.38;7396311;19;20031;-66
2022/04/09 00:53:12;;;;;;;9.70;4.72;;;;;;;3.09;71.84;99075.03;7395738;19;20494;-66
2022/04/09 00:58:23;;;;;;;9.98;4.85;;;;;;;3.07;72.65;99079.41;7396874;19;20023;-66
2022/04/09 01:00:53;;;;;;;5.60;4.50;;;;;;;3.07;72.37;99083.72;7397729;19;20490;-66
2022/04/09 01:03:22;;;;;;;4.30;3.92;;;;;;;3.06;72.55;99093.25;7398653;19;20014;-66
2022/04/09 01:05:50;;;;;;;5.90;4.75;;;;;;;3.04;72.76;99092.41;7395965;19;20033;-68
2022/04/09 01:08:19;;;;;;;10.52;5.40;;;;;;;3.04;72.72;99097.59;7395767;19;20046;-68
2022/04/09 01:10:50;;;;;;;9.85;4.13;;;;;;;3.05;72.59;99104.47;7397779;19;20014;-67
2022/04/09 01:13:18;;;;;;;7.03;4.53;;;;;;;3.04;73.02;99105.34;7398622;19;20374;-67
2022/04/09 01:15:46;;;;;;;8.68;4.20;;;;;;;3.04;73.41;99118.31;7397635;19;20039;-67
2022/04/09 01:18:18;;;;;;;6.25;4.05;;;;;;;3.03;73.32;99115.75;7396155;19;20023;-67
2022/04/09 01:20:46;;;;;;;8.43;4.45;;;;;;;3.04;73.30;99109.69;7397763;19;20031;-67
2022/04/09 01:23:17;;;;;;;9.45;4.10;;;;;;;3.04;73.33;99118.31;7397470;19;20035;-67
2022/04/09 01:25:45;;;;;;;6.15;4.20;;;;;;;3.03;73.55;99120.94;7395788;19;20010;-67
2022/04/09 01:28:13;;;;;;;6.55;4.13;;;;;;;3.02;73.83;99127.88;7395679;19;20015;-67
2022/04/09 01:30:42;;;;;;;8.85;4.30;;;;;;;3.02;73.51;99120.09;7395221;19;20022;-67
2022/04/09 01:38:51;;;;;;;7.07;4.57;;;;;;;3.01;73.80;99133.91;7393858;19;20009;-67
2022/04/09 01:41:19;;;;;;;4.22;3.78;;;;;;;3.01;73.46;99143.41;7397184;19;20025;-68
2022/04/09 01:43:47;;;;;;;7.78;4.63;;;;;;;2.99;73.70;99143.44;7395024;19;20019;-67
2022/04/09 01:46:16;;;;;;;5.50;4.07;;;;;;;2.98;74.02;99141.72;7394379;19;20499;-68
2022/04/09 01:48:44;;;;;;;11.23;4.35;;;;;;;2.95;74.35;99149.56;7396442;19;20018;-67
2022/04/09 01:51:12;;;;;;;4.80;4.00;;;;;;;2.95;73.95;99151.31;7397166;19;20015;-68
2022/04/09 01:53:40;;;;;;;7.60;4.30;;;;;;;2.93;74.14;99159.97;7395894;19;20014;-67
2022/04/09 01:56:11;;;;;;;10.25;4.05;;;;;;;2.91;74.60;99161.72;7394786;19;20021;-70
2022/04/09 01:58:39;;;;;;;5.97;4.03;;;;;;;2.91;74.78;99163.47;7396647;19;20085;-67
2022/04/09 02:01:07;;;;;;;9.02;3.88;;;;;;;2.89;74.89;99173.84;7396226;19;20018;-68
2022/04/09 02:03:35;;;;;;;10.00;4.13;;;;;;;2.88;74.85;99171.25;7396077;19;20019;-68
2022/04/09 02:06:03;;;;;;;10.63;4.50;;;;;;;2.88;74.91;99173.84;7394510;19;20023;-68
2022/04/09 02:08:32;;;;;;;6.80;3.85;;;;;;;2.87;75.02;99180.78;7395969;19;20032;-66
2022/04/09 02:11:00;;;;;;;10.32;4.20;;;;;;;2.86;76.19;99186.00;7396143;19;20088;-67
2022/04/09 02:13:32;;;;;;;6.15;4.05;;;;;;;2.83;75.56;99171.34;7394163;19;20110;-66
2022/04/09 02:16:00;;;;;;;7.90;3.85;;;;;;;2.84;76.19;99177.38;7394594;19;20393;-67
2022/04/09 02:18:28;;;;;;;7.25;3.90;;;;;;;2.82;77.25;99181.72;7395618;19;20018;-67
2022/04/09 02:20:57;;;;;;;11.57;4.72;;;;;;;2.82;76.72;99187.75;7394310;19;20027;-67
2022/04/09 02:23:26;;;;;;;8.27;4.05;;;;;;;2.83;77.24;99188.59;7393911;19;20014;-67
2022/04/09 02:25:54;;;;;;;7.90;3.95;;;;;;;2.82;76.64;99200.72;7393586;19;20019;-67
2022/04/09 02:28:22;;;;;;;7.88;3.88;;;;;;;2.82;76.76;99199.84;7395166;19;20026;-68
2022/04/09 02:30:53;;;;;;;6.50;3.72;;;;;;;2.81;77.00;99203.34;7393566;19;20018;-69
2022/04/09 02:33:21;;;;;;;7.07;4.25;;;;;;;2.81;76.74;99205.94;7393839;19;20019;-65
2022/04/09 02:35:49;;;;;;;9.23;3.67;;;;;;;2.81;76.54;99208.53;7393242;19;20022;-65
2022/04/09 02:38:17;;;;;;;10.25;4.20;;;;;;;2.79;76.56;99210.25;7393464;19;20007;-65
2022/04/09 02:40:45;;;;;;;6.65;3.55;;;;;;;2.79;77.01;99212.84;7393265;19;20043;-66
2022/04/09 02:43:13;;;;;;;8.63;3.60;;;;;;;2.75;77.79;99214.63;7394950;19;20018;-65
2022/04/09 02:45:41;;;;;;;6.35;3.67;;;;;;;2.75;77.46;99223.25;7392685;19;20538;-66
2022/04/09 02:48:12;;;;;;;7.60;3.53;;;;;;;2.74;78.11;99223.28;7395201;19;20027;-66
2022/04/09 02:50:41;;;;;;;8.50;4.05;;;;;;;2.73;77.74;99218.97;7399932;19;20018;-65
2022/04/09 02:53:12;;;;;;;11.13;4.78;;;;;;;2.71;77.77;99223.31;7399318;19;20082;-65
2022/04/09 02:55:40;;;;;;;12.95;6.03;;;;;;;2.69;77.98;99235.44;7399812;19;20023;-65
2022/04/09 02:58:08;;;;;;;9.50;5.40;;;;;;;2.69;78.22;99233.72;7402152;19;20030;-65
2022/04/09 03:00:36;;;;;;;10.30;6.32;;;;;;;2.69;78.08;99241.47;7402167;19;20033;-66
2022/04/09 03:03:05;;;;;;;13.75;6.13;;;;;;;2.69;77.97;99245.78;7399120;19;20015;-65
2022/04/09 03:05:35;;;;;;;11.43;4.00;;;;;;;2.68;78.45;99254.44;7398677;19;20490;-66
2022/04/09 03:08:03;;;;;;;10.57;4.00;;;;;;;2.67;78.37;99261.34;7402376;19;20022;-66
2022/04/09 03:10:31;;;;;;;9.57;3.65;;;;;;;2.66;78.36;99270.00;7399020;19;20023;-66
2022/04/09 03:13:00;;;;;;;4.80;3.00;;;;;;;2.66;78.30;99263.97;7401335;19;20478;-66
2022/04/09 03:15:29;;;;;;;8.70;3.85;;;;;;;2.64;78.91;99286.44;7400126;19;20025;-66
2022/04/09 03:17:57;;;;;;;11.05;3.75;;;;;;;2.62;79.52;99283.88;7398761;19;20021;-66
2022/04/09 03:20:25;;;;;;;8.23;3.38;;;;;;;2.63;78.99;99288.19;7398729;19;20018;-66
2022/04/09 03:22:56;;;;;;;8.85;3.40;;;;;;;2.61;79.41;99290.75;7398295;19;20503;-66
2022/04/09 03:25:24;;;;;;;8.82;3.60;;;;;;;2.61;79.23;99302.88;7398753;19;20019;-65
2022/04/09 03:27:52;;;;;;;8.75;3.63;;;;;;;2.59;79.70;99300.28;7400947;19;20525;-66
2022/04/09 03:30:20;;;;;;;7.78;3.53;;;;;;;2.58;78.97;99311.53;7401665;19;20031;-66
2022/04/09 03:32:49;;;;;;;11.13;3.53;;;;;;;2.57;79.56;99314.13;7401014;19;20027;-66
2022/04/09 03:35:17;;;;;;;7.05;3.85;;;;;;;2.56;79.94;99322.78;7398198;19;20035;-66
2022/04/09 03:37:45;;;;;;;9.32;3.67;;;;;;;2.53;80.75;99335.78;7397645;19;20006;-66
2022/04/09 03:40:16;;;;;;;8.18;3.25;;;;;;;2.50;81.03;99334.03;7400381;19;20489;-66
2022/04/09 03:42:44;;;;;;;5.00;3.45;;;;;;;2.50;80.28;99343.56;7401094;19;20031;-66
2022/04/09 03:45:13;;;;;;;10.88;4.55;;;;;;;2.46;80.70;99334.13;7399247;19;20027;-65
2022/04/09 03:47:41;;;;;;;13.32;3.50;;;;;;;2.46;80.79;99347.06;7397982;19;20025;-65
2022/04/09 03:50:10;;;;;;;8.30;3.47;;;;;;;2.42;81.45;99352.25;7400112;19;20502;-65
2022/04/09 03:52:38;;;;;;;7.72;3.63;;;;;;;2.41;81.00;99357.47;7400338;19;20022;-66
2022/04/09 03:55:08;;;;;;;9.38;4.03;;;;;;;2.41;81.33;99375.56;7398931;19;20010;-66
2022/04/09 03:57:39;;;;;;;9.38;3.78;;;;;;;2.39;81.51;99374.72;7397360;19;20516;-66
2022/04/09 04:00:08;;;;;;;8.80;4.13;;;;;;;2.39;81.45;99383.38;7397980;19;20023;-66
2022/04/09 04:02:37;;;;;;;6.13;3.15;;;;;;;2.37;81.10;99390.28;7398643;19;20027;-66
2022/04/09 04:05:06;;;;;;;8.02;3.97;;;;;;;2.35;81.54;99392.03;7399020;19;20015;-66
2022/04/09 04:07:34;;;;;;;7.13;3.30;;;;;;;2.34;81.59;99403.25;7399955;19;20022;-66
2022/04/09 04:10:09;;;;;;;10.43;3.63;;;;;;;2.33;81.62;99403.28;7397400;19;20019;-66
2022/04/09 04:12:40;;;;;;;9.52;4.05;;;;;;;2.31;82.73;99417.97;7397701;19;20035;-66
2022/04/09 04:15:09;;;;;;;10.57;3.55;;;;;;;2.31;81.23;99417.97;7398634;19;20367;-67
2022/04/09 04:17:41;;;;;;;9.93;3.10;;;;;;;2.28;82.26;99430.03;7397178;19;20040;-66
2022/04/09 04:20:11;;;;;;;10.05;3.28;;;;;;;2.26;81.66;99430.94;7396906;19;20022;-66
2022/04/09 04:22:40;;;;;;;5.78;3.42;;;;;;;2.25;81.97;99431.81;7399280;19;20018;-66
2022/04/09 04:25:09;;;;;;;9.18;3.28;;;;;;;2.24;82.23;99443.91;7396873;19;20014;-66
2022/04/09 04:27:43;;;;;;;8.43;3.30;;;;;;;2.22;82.91;99443.03;7399205;19;20018;-66
2022/04/09 04:30:12;;;;;;;;;;;;;;;2.21;83.67;99450.81;7397680;19;20052;-66
2022/04/09 04:32:40;;;;;;;10.57;3.67;;;;;;;2.19;82.47;99455.16;7398980;19;19943;-66
2022/04/09 04:35:09;;;;;;;11.30;4.03;;;;;;;2.17;82.47;99460.34;7396225;19;20040;-66
2022/04/09 04:37:41;;;;;;;7.93;4.07;;;;;;;2.18;82.22;99458.63;7396132;19;20006;-65
2022/04/09 04:40:10;;;;;;;15.00;4.28;;;;;;;2.17;82.82;99465.50;7398738;19;20035;-66
2022/04/09 04:42:41;;;;;;;7.93;3.92;;;;;;;2.16;82.76;99475.88;7398662;19;20023;-66
2022/04/09 04:45:11;;;;;;;8.68;3.88;;;;;;;2.16;83.62;99473.28;7397885;19;20026;-66
2022/04/09 04:47:47;;;;;;;12.38;3.38;;;;;;;2.15;83.16;99481.91;7396382;19;20021;-66
2022/04/09 04:50:16;;;;;;;11.52;3.75;;;;;;;2.16;82.71;99496.59;7396331;19;20023;-66
2022/04/09 04:52:46;;;;;;;9.15;3.42;;;;;;;2.15;82.19;99498.31;7398308;19;20031;-66
2022/04/09 04:55:14;;;;;;;12.57;3.83;;;;;;;2.17;82.56;99508.66;7397147;19;20018;-66
2022/04/09 04:57:50;;;;;;;10.77;3.30;;;;;;;2.17;83.12;99511.25;7396146;19;20022;-66
2022/04/09 05:00:21;;;;;;;11.60;3.38;;;;;;;2.15;82.80;99524.19;7398635;19;20042;-66
2022/04/09 05:02:49;;;;;;;6.10;3.25;;;;;;;2.17;82.87;99522.44;7395610;19;20577;-65
2022/04/09 05:05:17;;;;;;;8.38;3.50;;;;;;;2.18;82.31;99531.09;7395986;19;20014;-66
2022/04/09 05:07:48;;;;;;;12.13;3.33;;;;;;;2.18;82.33;99537.09;7397950;19;20036;-65
2022/04/09 05:10:17;;;;;;;13.05;3.60;;;;;;;2.18;82.55;99544.03;7396827;19;20023;-66
2022/04/09 05:12:48;;;;;;;10.27;3.03;;;;;;;2.17;82.53;99543.16;7396629;19;20127;-66
2022/04/09 05:15:19;;;;;;;9.00;2.92;;;;;;;2.20;82.87;99552.63;7395711;19;20023;-66
2022/04/09 05:17:48;;;;;;;14.30;4.03;;;;;;;2.21;82.51;99555.22;7395773;19;20135;-65
2022/04/09 05:20:18;;;;;;;8.00;3.60;;;;;;;2.22;82.45;99563.81;7397565;19;20018;-65
2022/04/09 05:22:47;;;;;;;10.93;4.35;;;;;;;2.24;81.91;99569.88;7395138;19;20481;-66
2022/04/09 05:25:19;;;;;;;10.48;3.03;;;;;;;2.24;82.52;99573.28;7396248;19;20082;-66
2022/04/09 05:27:51;;;;;;;10.05;3.28;;;;;;;2.28;82.24;99581.91;7397731;19;20031;-66
2022/04/09 05:30:20;;;;;;;9.18;3.30;;;;;;;2.29;82.66;99578.44;7395273;19;20025;-66
2022/04/09 05:32:48;;;;;;;14.10;3.63;;;;;;;2.30;82.79;99587.94;7396886;19;20022;-65
2022/04/09 05:35:16;;;;;;;10.50;3.60;;;;;;;2.34;82.09;99592.22;7396221;19;20023;-66
2022/04/09 05:37:46;;;;;;;9.07;3.35;;;;;;;2.35;82.56;99606.88;7395420;19;20017;-66
2022/04/09 05:40:15;;;;;;;8.63;2.78;;;;;;;2.40;82.26;99607.72;7396580;19;20039;-65
2022/04/09 05:42:43;;;;;;;9.63;4.10;;;;;;;2.43;82.15;99612.00;7396488;19;20022;-65
2022/04/09 05:45:15;;;;;;;7.70;3.40;;;;;;;2.47;81.89;99626.66;7394722;19;20022;-65
2022/04/09 05:47:43;;;;;;;10.43;3.45;;;;;;;2.50;81.86;99621.44;7396948;19;20014;-65
2022/04/09 05:50:12;;;;;;;9.15;3.92;;;;;;;2.54;82.09;99635.22;7395043;19;20044;-64
2022/04/09 05:52:40;;;;;;;11.63;3.67;;;;;;;2.58;82.21;99637.78;7393786;19;20489;-66
2022/04/09 05:55:10;;;;;;;9.23;3.42;;;;;;;2.61;81.35;99640.34;7394244;19;20022;-65
2022/04/09 05:57:38;;;;;;;9.00;3.53;;;;;;;2.67;81.88;99648.97;7396132;19;20018;-65
2022/04/09 06:00:09;;;;;;;10.52;4.10;;;;;;;2.71;81.59;99658.44;7395990;19;20026;-65
2022/04/09 06:02:40;;;;;;;11.75;4.18;;;;;;;2.73;81.96;99661.84;7396391;19;20077;-66
2022/04/09 06:05:10;;;;;;;9.63;3.92;;;;;;;2.75;81.85;99657.53;7395483;19;20031;-65
2022/04/09 06:07:38;;;;;;;8.90;3.78;;;;;;;2.77;81.93;99663.56;7395601;19;20036;-65
2022/04/09 06:10:08;;;;;;;10.88;4.00;;;;;;;2.81;81.75;99675.63;7395725;19;20018;-66
2022/04/09 06:12:37;;;;;;;14.10;4.22;;;;;;;2.83;81.35;99667.84;7395912;19;20011;-66
2022/04/09 06:15:06;;;;;;;8.98;4.25;;;;;;;2.88;81.07;99682.50;7394180;19;20466;-65
2022/04/09 06:17:36;;;;;;;10.93;4.57;;;;;;;2.92;81.18;99693.69;7395394;19;20007;-66
2022/04/09 06:20:08;;;;;;;14.48;5.32;;;;;;;2.93;81.17;99701.44;7395193;19;20100;-65
2022/04/09 06:22:36;;;;;;;13.90;5.10;;;;;;;2.96;81.27;99690.19;7392261;19;20035;-67
2022/04/09 06:25:11;;;;;;;10.40;4.88;;;;;;;3.01;81.22;99703.09;7392852;19;20018;-66
2022/04/09 06:27:41;;;;;;;9.45;5.20;;;;;;;3.05;81.01;99703.06;7392422;19;20018;-65
2022/04/09 06:30:10;;;;;;;15.43;5.95;;;;;;;3.09;80.68;99707.34;7395699;19;20018;-64
2022/04/09 06:32:39;;;;;;;10.85;5.30;;;;;;;3.16;80.52;99717.69;7394660;19;20015;-66
2022/04/09 06:35:11;;;;;;;11.40;5.35;;;;;;;3.22;79.77;99721.09;7394020;19;20023;-65
2022/04/09 06:37:39;;;;;;;9.35;5.25;;;;;;;3.28;79.09;99727.97;7393175;19;20031;-66
2022/04/09 06:40:09;;;;;;;13.38;5.25;;;;;;;3.36;79.46;99720.13;7393194;19;20052;-65
2022/04/09 06:42:38;;;;;;;12.60;5.00;;;;;;;3.45;78.80;99753.75;7395041;19;20022;-65
2022/04/09 06:45:08;;;;;;;14.32;5.32;;;;;;;3.53;78.42;99746.75;7393709;19;20023;-65
2022/04/09 06:47:38;;;;;;;15.90;5.82;;;;;;;3.63;78.29;99757.03;7394814;19;20032;-66
2022/04/09 06:50:18;;;;;;;10.32;6.30;;;;;;;3.71;78.18;99745.72;7394715;19;20022;-66
2022/04/09 06:52:47;;;;;;;10.45;5.68;;;;;;;3.83;77.56;99756.84;7394833;19;20022;-66
2022/04/09 06:55:15;;;;;;;14.25;5.15;;;;;;;3.90;77.39;99753.31;7392410;19;20461;-66
2022/04/09 06:57:44;;;;;;;8.95;5.00;;;;;;;3.93;76.24;99766.28;7392586;19;20014;-66
2022/04/09 07:00:15;;;;;;;11.90;5.22;;;;;;;3.94;76.03;99765.38;7394327;19;20022;-66
2022/04/09 07:02:43;;;;;;;10.55;5.10;;;;;;;3.99;76.28;99757.56;7394573;19;20043;-66
2022/04/09 07:05:14;;;;;;;11.00;4.57;;;;;;;4.03;75.72;99775.69;7393091;19;20035;-66
2022/04/09 07:07:42;;;;;;;13.30;5.00;;;;;;;4.09;75.34;99774.75;7392477;19;20022;-65
2022/04/09 07:10:12;;;;;;;6.25;4.85;;;;;;;4.16;75.40;99788.56;7393695;19;20039;-65
2022/04/09 07:12:40;;;;;;;12.05;5.00;;;;;;;4.25;75.11;99780.66;7393699;19;20010;-66
2022/04/09 07:15:09;;;;;;;8.55;4.82;;;;;;;4.31;74.46;99779.72;7392618;19;20031;-65
2022/04/09 07:17:38;;;;;;;12.85;5.13;;;;;;;4.34;74.30;99790.91;7393743;19;20035;-66
2022/04/09 07:20:09;;;;;;;10.05;4.07;;;;;;;4.40;73.77;99788.25;7393535;19;20387;-67
2022/04/09 07:22:41;;;;;;;13.73;6.22;;;;;;;4.49;73.67;99792.47;7394013;19;20022;-66
2022/04/09 07:25:11;;;;;;;9.73;5.40;;;;;;;4.55;72.53;99794.16;7392878;19;20043;-66
2022/04/09 07:27:40;;;;;;;11.70;4.55;;;;;;;4.65;73.32;99800.97;7392811;19;20505;-65
2022/04/09 07:30:11;;;;;;;11.25;5.40;;;;;;;4.76;72.83;99807.75;7391381;19;20022;-65
2022/04/09 07:32:40;;;;;;;15.30;6.20;;;;;;;4.83;72.79;99810.25;7390610;19;20378;-66
2022/04/09 07:35:09;;;;;;;9.52;3.78;;;;;;;4.91;71.71;99810.16;7393946;19;20074;-66
2022/04/09 07:37:54;;;;;;;10.35;3.88;;;;;;;4.95;69.86;99819.63;7396760;19;20015;-66
2022/04/09 07:40:24;;;;;;;9.20;3.85;;;;;;;4.94;70.14;99820.53;7400494;19;20026;-66
2022/04/09 07:42:53;;;;;;;10.20;3.95;;;;;;;4.95;70.11;99819.63;7400519;19;20024;-66
2022/04/09 07:45:22;;;;;;;9.43;3.55;;;;;;;4.99;71.08;99823.03;7398597;19;20031;-66
2022/04/09 07:47:55;;;;;;;8.20;3.63;;;;;;;4.97;69.62;99828.25;7400123;19;20018;-66
2022/04/09 07:50:25;;;;;;;9.45;3.70;;;;;;;4.99;69.78;99846.44;7397724;19;20018;-66
2022/04/09 07:52:56;;;;;;;9.63;3.78;;;;;;;4.96;68.91;99852.53;7396954;19;20481;-66
2022/04/09 07:55:25;;;;;;;7.82;3.35;;;;;;;4.93;68.35;99855.19;7399092;19;20432;-66
2022/04/09 07:57:54;;;;;;;7.05;2.83;;;;;;;4.96;68.00;99843.88;7399195;19;20368;-66
2022/04/09 08:00:24;;;;;;;7.35;3.20;;;;;;;4.96;66.73;99855.13;7399688;19;20018;-66
2022/04/09 08:02:52;;;;;;;7.22;2.92;;;;;;;5.00;67.47;99869.81;7397084;19;20022;-66
2022/04/09 08:05:20;;;;;;;9.30;2.95;;;;;;;5.06;67.73;99840.28;7396589;19;20039;-66
2022/04/09 08:07:49;;;;;;;7.10;2.67;;;;;;;5.13;66.31;99838.44;7399569;19;20037;-66
2022/04/09 08:10:20;;;;;;;5.85;2.75;;;;;;;5.16;66.35;99885.22;7398379;19;20031;-66
2022/04/09 08:12:51;;;;;;;8.13;3.30;;;;;;;5.17;66.84;99866.16;7400310;19;20026;-66
2022/04/09 08:15:20;;;;;;;5.72;3.00;;;;;;;5.17;66.56;99856.59;7397252;19;20477;-66
2022/04/09 08:17:48;;;;;;;9.07;3.17;;;;;;;5.13;65.64;99849.72;7396739;19;20022;-66
2022/04/09 08:20:17;;;;;;;4.07;2.67;;;;;;;5.15;64.60;99853.13;7398824;19;20027;-66
2022/04/09 08:22:45;;;;;;;7.15;2.80;;;;;;;5.18;64.35;99878.25;7396364;19;20035;-66
2022/04/09 08:25:13;;;;;;;6.65;3.25;;;;;;;5.25;64.77;99866.03;7395674;19;20032;-65
2022/04/09 08:27:45;;;;;;;9.43;2.50;;;;;;;5.33;64.14;99870.25;7396196;19;20031;-66
2022/04/09 08:30:15;;;;;;;10.20;3.08;;;;;;;5.44;64.68;99871.84;7397109;19;20034;-66
2022/04/09 08:32:43;;;;;;;5.43;2.72;;;;;;;5.51;64.66;99883.84;7394547;19;20342;-66
2022/04/09 08:35:11;;;;;;;7.80;3.20;;;;;;;5.55;64.80;99870.78;7396159;19;20022;-66
2022/04/09 08:37:40;;;;;;;7.18;2.50;;;;;;;5.55;65.16;99873.38;7395356;19;20441;-66
2022/04/09 08:40:09;;;;;;;5.20;2.47;;;;;;;5.59;64.07;99884.59;7397867;19;20381;-66
2022/04/09 08:42:37;;;;;;;5.75;2.72;;;;;;;5.65;65.08;99883.63;7395783;19;20023;-66
2022/04/09 08:45:09;;;;;;;10.45;2.88;;;;;;;5.71;61.92;99886.16;7395116;19;20366;-66
2022/04/09 08:47:38;;;;;;;7.10;2.63;;;;;;;5.76;59.69;99870.47;7397377;19;20031;-66
2022/04/09 08:50:07;;;;;;;6.70;3.03;;;;;;;5.79;59.29;99901.69;7395945;19;20022;-66
2022/04/09 08:52:36;;;;;;;5.72;1.83;;;;;;;5.79;56.21;99891.25;7397972;19;20022;-66
2022/04/09 08:55:04;;;;;;;13.68;5.90;;;;;;;5.79;54.92;99935.50;7395566;19;20054;-66
2022/04/09 08:57:33;;;;;;;5.80;1.98;;;;;;;5.76;55.71;99889.53;7396181;19;20023;-66
2022/04/09 09:00:01;;;;;;;7.43;2.80;;;;;;;5.83;56.93;99872.09;7397673;19;20018;-66
2022/04/09 09:02:32;;;;;;;7.93;2.45;;;;;;;5.90;58.24;99889.31;7397135;19;20025;-66
2022/04/09 09:05:00;;;;;;;5.22;2.17;;;;;;;6.05;57.74;99884.78;7394908;19;20335;-64
2022/04/09 09:07:28;;;;;;;6.97;2.10;;;;;;;6.13;56.82;99901.13;7394793;19;20022;-66
2022/04/09 09:10:16;;;;;;;7.78;2.05;;;;;;;6.18;56.51;99899.34;7397174;19;20031;-66
2022/04/09 09:12:45;;;;;;;7.68;2.20;;;;;;;6.19;56.91;99901.03;7397958;19;20015;-65
2022/04/09 09:15:13;;;;;;;7.10;2.20;;;;;;;6.23;54.77;99900.13;7396288;19;20035;-66
2022/04/09 09:17:44;;;;;;;9.13;2.17;;;;;;;6.25;55.36;99903.53;7394434;19;20486;-65
2022/04/09 09:20:16;;;;;;;6.25;2.58;;;;;;;6.34;56.65;99899.91;7395799;19;20027;-66
2022/04/09 09:22:44;;;;;;;4.25;1.90;;;;;;;6.44;56.66;99900.59;7395662;19;20019;-65
2022/04/09 09:25:14;;;;;;;5.15;2.13;;;;;;;6.52;56.17;99903.91;7396029;19;20029;-65
2022/04/09 09:27:43;;;;;;;6.78;2.28;;;;;;;6.57;56.45;99906.44;7395022;19;20023;-65
2022/04/09 09:30:14;;;;;;;7.28;2.13;;;;;;;6.54;56.94;99899.53;7396793;19;20040;-65
2022/04/09 09:32:45;;;;;;;8.40;4.10;;;;;;;6.55;55.65;99914.31;7396995;19;20019;-66
2022/04/09 09:35:14;;;;;;;4.60;2.47;;;;;;;6.58;53.02;99908.16;7394850;19;20424;-67
2022/04/09 09:37:43;;;;;;;3.30;2.15;;;;;;;6.61;53.16;99906.38;7394013;19;20018;-66
2022/04/09 09:40:12;;;;;;;8.32;3.10;;;;;;;6.67;51.99;99934.06;7394295;19;20477;-66
2022/04/09 09:42:40;;;;;;;8.68;2.90;;;;;;;6.65;51.50;99892.38;7396012;19;20087;-66
2022/04/09 09:45:09;;;;;;;2.55;1.63;;;;;;;6.78;51.03;99895.59;7394416;19;20018;-66
2022/04/09 09:47:37;;;;;;;2.13;1.80;;;;;;;6.81;49.54;99942.50;7394453;19;20031;-65
2022/04/09 09:50:10;;;;;;;6.57;2.53;;;;;;;6.84;51.41;99892.88;7394530;19;20031;-65
2022/04/09 09:52:39;;;;;;;6.05;2.90;;;;;;;6.92;51.78;99905.75;7397020;19;20030;-65
2022/04/09 09:55:10;;;;;;;4.25;2.42;;;;;;;6.98;52.83;99887.38;7395441;19;20015;-65
2022/04/09 09:57:39;;;;;;;5.45;2.20;;;;;;;7.10;51.35;99922.81;7394186;19;20034;-65
2022/04/09 10:00:10;;;;;;;3.88;1.83;;;;;;;7.14;50.08;99882.72;7394232;19;20035;-65
2022/04/09 10:02:40;;;;;;;7.18;1.95;;;;;;;7.17;50.51;99907.88;7396241;19;20021;-65
2022/04/09 10:05:12;;;;;;;4.53;2.00;;;;;;;7.22;48.48;99915.63;7395267;19;20019;-66
2022/04/09 10:07:42;;;;;;;7.63;1.90;;;;;;;7.23;46.00;99912.97;7396334;19;20022;-66
2022/04/09 10:10:11;;;;;;;2.97;1.58;;;;;;;7.24;45.02;99930.34;7395961;19;20019;-66
2022/04/09 10:12:41;;;;;;;9.05;1.65;;;;;;;7.28;46.98;99925.88;7395727;19;20039;-66
2022/04/09 10:15:10;;;;;;;6.15;1.63;;;;;;;7.30;47.46;99913.69;7394346;19;20423;-66
2022/04/09 10:17:40;;;;;;;5.78;1.75;;;;;;;7.26;46.34;99907.66;7394275;19;20028;-65
2022/04/09 10:20:12;;;;;;;3.72;1.70;;;;;;;7.23;45.91;99933.84;7395378;19;20014;-66
2022/04/09 10:22:49;;;;;;;3.72;1.35;;;;;;;7.26;46.65;99923.31;7394611;19;20485;-66
2022/04/09 10:25:20;;;;;;;4.72;1.67;;;;;;;7.30;46.23;99927.59;7394231;19;20039;-65
2022/04/09 10:27:52;;;;;;;4.35;1.60;;;;;;;7.32;46.24;99938.84;7392791;19;20401;-65
2022/04/09 10:30:22;;;;;;;6.65;2.00;;;;;;;7.40;46.25;99906.53;7394736;19;20022;-65
2022/04/09 10:32:53;;;;;;;8.25;2.40;;;;;;;7.49;47.28;99911.53;7394551;19;20022;-64
2022/04/09 10:35:38;;;;;;;4.72;2.58;;;;;;;7.61;45.99;99937.34;7394991;19;20019;-65
2022/04/09 10:38:21;;;;;;;6.68;1.95;;;;;;;7.68;44.21;99916.34;7392775;19;20078;-65
2022/04/09 10:41:27;;;;;;;3.55;1.45;;;;;;;7.65;43.86;99912.88;7393827;19;20019;-66
2022/04/09 10:43:57;;;;;;;3.83;1.55;;;;;;;7.66;45.23;99919.00;7392751;19;20500;-65
2022/04/09 10:46:36;;;;;;;6.57;1.98;;;;;;;7.65;44.98;99952.06;7392937;19;20019;-66
2022/04/09 10:49:23;;;;;;;3.20;1.70;;;;;;;7.68;45.85;99914.56;7393280;19;20022;-66
2022/04/09 10:52:11;;;;;;;3.92;2.03;;;;;;;7.73;44.76;99922.31;7393464;19;20039;-66
2022/04/09 10:54:43;;;;;;;4.80;1.80;;;;;;;7.76;45.36;99928.31;7394389;19;20018;-66
2022/04/09 10:57:21;;;;;;;2.72;1.42;;;;;;;7.73;44.06;99923.16;7393908;19;20015;-66
2022/04/09 10:59:59;;;;;;;2.53;1.30;;;;;;;7.74;42.34;99944.91;7392396;19;20026;-66
2022/04/09 11:02:28;;;;;;;5.25;1.90;;;;;;;7.86;44.87;99928.09;7394164;19;20018;-65
2022/04/09 11:04:56;;;;;;;6.30;1.55;;;;;;;8.01;42.76;99926.88;7391302;19;20022;-66
2022/04/09 11:07:27;;;;;;;3.72;1.40;;;;;;;8.17;42.75;99949.13;7391837;19;20023;-65
2022/04/09 11:09:58;;;;;;;2.38;1.42;;;;;;;8.23;43.13;99922.00;7396436;19;20011;-66
2022/04/09 11:12:28;;;;;;;2.08;1.35;;;;;;;8.27;42.29;99944.53;7401470;19;20032;-65
2022/04/09 11:14:58;;;;;;;6.93;1.80;;;;;;;8.36;42.33;99938.22;7400621;19;20025;-65
2022/04/09 11:17:29;;;;;;;5.32;2.00;;;;;;;8.35;42.09;99966.09;7400164;19;20014;-66
2022/04/09 11:19:58;;;;;;;6.85;1.95;;;;;;;8.29;42.83;99943.59;7401534;19;20029;-67
2022/04/09 11:22:36;;;;;;;7.13;1.48;;;;;;;8.26;43.68;99943.66;7401133;19;20035;-66
2022/04/09 11:25:06;;;;;;;5.72;2.08;;;;;;;8.29;44.40;99961.00;7398453;19;20022;-66
2022/04/09 11:27:35;;;;;;;5.35;1.85;;;;;;;8.31;44.91;99943.53;7397527;19;20541;-66
2022/04/09 11:30:04;;;;;;;3.45;1.40;;;;;;;8.37;44.10;99945.16;7398342;19;20018;-66
2022/04/09 11:32:35;;;;;;;3.22;1.20;;;;;;;8.28;42.32;99917.50;7400986;19;20035;-66
2022/04/09 11:35:08;;;;;;;5.20;1.40;;;;;;;8.31;43.39;99961.84;7398975;19;20486;-66
2022/04/09 11:37:41;;;;;;;3.42;1.08;;;;;;;8.31;41.68;99944.44;7398224;19;20028;-66
2022/04/09 11:40:11;;;;;;;2.95;1.10;;;;;;;8.38;42.31;99912.88;7398330;19;20039;-66
2022/04/09 11:42:47;;;;;;;2.85;1.15;;;;;;;8.40;41.79;99951.16;7399922;19;20486;-67
2022/04/09 11:45:20;;;;;;;2.63;1.08;;;;;;;8.45;42.63;99931.00;7398976;19;20074;-66
2022/04/09 11:47:49;;;;;;;3.25;1.08;;;;;;;8.48;42.36;99943.16;7400890;19;20021;-65
2022/04/09 11:56:06;;;;;;;2.25;1.25;;;;;;;8.68;42.95;99923.47;7395353;19;20487;-66
2022/04/09 11:58:36;;;;;;;3.35;1.15;;;;;;;8.72;43.03;99946.00;7397583;19;20477;-65
2022/04/09 12:01:09;;;;;;;3.97;1.25;;;;;;;8.75;43.23;99945.94;7400202;19;20039;-65
2022/04/09 12:03:38;;;;;;;3.80;1.17;;;;;;;8.81;43.99;99924.84;7398644;19;20019;-67
2022/04/09 12:06:07;;;;;;;5.13;1.02;;;;;;;8.98;43.54;99936.59;7399807;19;20019;-66